createdAt,value
2022-09-04T00:02:05.920Z,3.72
2022-09-04T00:04:47.517Z,3.67
2022-09-04T00:08:09.041Z,3.80
2022-09-04T00:10:59.938Z,3.95
2022-09-04T00:13:46.379Z,4.20
2022-09-04T00:16:28.232Z,4.47
2022-09-04T00:19:07.212Z,4.35
2022-09-04T00:22:04.006Z,3.92
2022-09-04T00:24:56.561Z,4.38
2022-09-04T00:27:24.190Z,4.30
2022-09-04T00:30:07.927Z,4.25
2022-09-04T00:33:08.496Z,4.65
2022-09-04T00:35:41.190Z,4.47
2022-09-04T00:38:30.645Z,4.20
2022-09-04T00:41:04.483Z,3.60
2022-09-04T00:43:55.432Z,3.67
2022-09-04T00:46:47.855Z,3.15
2022-09-04T00:49:47.515Z,3.53
2022-09-04T00:52:38.797Z,3.15
2022-09-04T00:55:16.097Z,3.35
2022-09-04T00:57:49.140Z,3.10
2022-09-04T01:00:20.172Z,3.83
2022-09-04T01:03:04.092Z,3.70
2022-09-04T01:05:40.585Z,3.53
2022-09-04T01:08:20.450Z,4.20
2022-09-04T01:11:08.568Z,4.47
2022-09-04T01:14:29.664Z,4.38
2022-09-04T01:17:29.353Z,4.80
2022-09-04T01:19:58.955Z,4.32
2022-09-04T01:22:47.265Z,4.28
2022-09-04T01:25:30.109Z,3.70
2022-09-04T01:28:14.747Z,3.63
2022-09-04T01:30:47.395Z,4.38
2022-09-04T01:33:44.956Z,3.78
2022-09-04T01:36:20.013Z,3.92
2022-09-04T01:38:53.714Z,4.03
2022-09-04T01:41:31.016Z,4.05
2022-09-04T01:44:00.328Z,4.25
2022-09-04T01:46:42.062Z,4.60
2022-09-04T01:49:30.626Z,4.37
2022-09-04T01:52:02.795Z,4.25
2022-09-04T01:54:48.214Z,4.15
2022-09-04T01:57:32.247Z,4.13
2022-09-04T02:00:14.322Z,5.43
2022-09-04T02:02:41.417Z,4.00
2022-09-04T02:05:13.766Z,4.63
2022-09-04T02:07:48.048Z,4.88
2022-09-04T02:10:34.470Z,4.70
2022-09-04T02:13:35.996Z,3.65
2022-09-04T02:16:24.944Z,3.75
2022-09-04T02:19:37.141Z,4.97
2022-09-04T02:22:07.209Z,4.50
2022-09-04T02:24:40.479Z,4.78
2022-09-04T02:27:38.897Z,5.20
2022-09-04T02:30:11.891Z,4.50
2022-09-04T02:33:06.195Z,4.80
2022-09-04T02:35:46.948Z,5.32
2022-09-04T02:38:30.837Z,5.55
2022-09-04T02:40:58.293Z,4.47
2022-09-04T02:44:00.416Z,5.20
2022-09-04T02:46:27.100Z,4.60
2022-09-04T02:49:08.635Z,4.63
2022-09-04T02:51:45.801Z,3.97
2022-09-04T02:54:50.849Z,4.65
2022-09-04T02:58:08.079Z,4.68
2022-09-04T03:00:54.421Z,4.38
2022-09-04T03:03:30.015Z,5.32
2022-09-04T03:06:05.135Z,4.85
2022-09-04T03:08:36.333Z,4.45
2022-09-04T03:11:08.992Z,4.93
2022-09-04T03:13:57.746Z,4.80
2022-09-04T03:16:48.395Z,5.50
2022-09-04T03:19:20.183Z,5.43
2022-09-04T03:21:55.621Z,6.13
2022-09-04T03:24:56.263Z,5.80
2022-09-04T03:27:23.291Z,6.35
2022-09-04T03:30:08.364Z,5.57
2022-09-04T03:32:56.679Z,5.32
2022-09-04T03:35:33.868Z,5.15
2022-09-04T03:38:24.156Z,5.85
2022-09-04T03:41:00.616Z,5.55
2022-09-04T03:43:51.220Z,5.15
2022-09-04T03:46:41.055Z,5.22
2022-09-04T03:49:15.216Z,4.70
2022-09-04T03:52:09.931Z,5.18
2022-09-04T03:54:58.352Z,4.50
2022-09-04T03:57:30.714Z,5.30
2022-09-04T04:00:03.669Z,4.72
2022-09-04T04:02:54.414Z,4.50
2022-09-04T04:05:39.137Z,4.47
2022-09-04T04:08:23.796Z,4.82
2022-09-04T04:11:13.127Z,4.82
2022-09-04T04:14:04.535Z,4.97
2022-09-04T04:16:56.202Z,4.43
2022-09-04T04:19:44.401Z,5.10
2022-09-04T04:22:41.466Z,5.70
2022-09-04T04:25:25.583Z,5.32
2022-09-04T04:28:20.111Z,5.88
2022-09-04T04:30:54.668Z,5.72
2022-09-04T04:33:48.670Z,5.63
2022-09-04T04:36:34.650Z,5.88
2022-09-04T04:39:09.985Z,5.45
2022-09-04T04:42:06.585Z,6.57
2022-09-04T04:45:10.862Z,7.10
2022-09-04T04:47:57.144Z,6.55
2022-09-04T04:51:05.398Z,7.03
2022-09-04T04:53:57.424Z,6.90
2022-09-04T04:57:03.878Z,7.47
2022-09-04T04:59:34.744Z,7.35
2022-09-04T05:02:14.022Z,5.80
2022-09-04T05:05:07.179Z,6.43
2022-09-04T05:08:06.324Z,6.28
2022-09-04T05:10:51.389Z,7.22
2022-09-04T05:13:36.419Z,6.72
2022-09-04T05:16:19.076Z,7.07
2022-09-04T05:19:02.671Z,6.78
2022-09-04T05:21:37.278Z,7.47
2022-09-04T05:24:11.253Z,7.30
2022-09-04T05:26:53.240Z,8.57
2022-09-04T05:29:29.307Z,7.38
2022-09-04T05:32:05.027Z,8.18
2022-09-04T05:35:04.119Z,6.97
2022-09-04T05:37:44.256Z,7.60
2022-09-04T05:40:24.840Z,7.47
2022-09-04T05:43:02.922Z,7.55
2022-09-04T05:45:44.763Z,6.70
2022-09-04T05:48:20.637Z,8.20
2022-09-04T05:51:05.298Z,6.70
2022-09-04T05:53:50.844Z,8.35
2022-09-04T05:56:33.272Z,8.20
2022-09-04T05:59:09.110Z,9.20
2022-09-04T06:01:58.772Z,9.55
2022-09-04T06:04:46.647Z,9.10
2022-09-04T06:07:27.638Z,8.75
2022-09-04T06:10:03.750Z,9.68
2022-09-04T06:12:52.371Z,9.38
2022-09-04T06:15:40.547Z,9.88
2022-09-04T06:18:17.307Z,9.80
2022-09-04T06:20:59.770Z,8.85
2022-09-04T06:23:57.675Z,8.35
2022-09-04T06:26:57.895Z,8.20
2022-09-04T06:29:37.716Z,8.35
2022-09-04T06:32:14.499Z,7.97
2022-09-04T06:34:49.050Z,7.70
2022-09-04T06:37:33.619Z,7.47
2022-09-04T06:40:15.311Z,6.57
2022-09-04T06:42:56.305Z,6.65
2022-09-04T06:45:23.020Z,6.93
2022-09-04T06:48:08.492Z,7.03
2022-09-04T06:50:49.136Z,6.30
2022-09-04T06:54:04.248Z,5.72
2022-09-04T06:57:11.040Z,5.20
2022-09-04T06:59:59.552Z,6.65
2022-09-04T07:02:29.028Z,4.88
2022-09-04T07:05:14.397Z,5.55
2022-09-04T07:08:03.217Z,5.63
2022-09-04T07:10:43.665Z,5.78
2022-09-04T07:13:23.688Z,5.07
2022-09-04T07:16:14.885Z,5.25
2022-09-04T07:18:59.604Z,4.72
2022-09-04T07:21:42.356Z,5.20
2022-09-04T07:24:50.464Z,4.95
2022-09-04T07:27:42.835Z,4.72
2022-09-04T07:30:15.199Z,4.55
2022-09-04T07:32:53.930Z,4.32
2022-09-04T07:35:51.175Z,4.57
2022-09-04T07:38:29.372Z,4.43
2022-09-04T07:41:20.074Z,4.72
2022-09-04T07:43:55.102Z,4.53
2022-09-04T07:46:47.211Z,4.38
2022-09-04T07:49:32.358Z,4.28
2022-09-04T07:52:07.668Z,3.53
2022-09-04T07:55:13.433Z,4.35
2022-09-04T07:57:42.814Z,3.53
2022-09-04T08:00:15.468Z,3.58
2022-09-04T08:03:17.053Z,3.40
2022-09-04T08:06:19.638Z,3.22
2022-09-04T08:09:28.888Z,3.00
2022-09-04T08:12:09.261Z,3.47
2022-09-04T08:14:52.472Z,3.83
2022-09-04T08:17:49.427Z,3.70
2022-09-04T08:20:39.112Z,3.55
2022-09-04T08:23:36.982Z,3.85
2022-09-04T08:26:14.273Z,3.88
2022-09-04T08:29:12.653Z,4.10
2022-09-04T08:31:46.870Z,4.30
2022-09-04T08:34:39.048Z,4.38
2022-09-04T08:37:25.077Z,4.90
2022-09-04T08:40:34.949Z,4.43
2022-09-04T08:43:39.792Z,4.43
2022-09-04T08:46:31.870Z,3.95
2022-09-04T08:49:10.973Z,3.45
2022-09-04T08:52:09.756Z,3.22
2022-09-04T08:55:01.929Z,3.25
2022-09-04T08:57:43.584Z,2.83
2022-09-04T09:00:14.458Z,2.73
2022-09-04T09:03:06.490Z,2.50
2022-09-04T09:05:53.651Z,2.60
2022-09-04T09:08:23.341Z,2.60
2022-09-04T09:11:08.569Z,2.63
2022-09-04T09:14:20.255Z,1.92
2022-09-04T09:16:55.761Z,2.00
2022-09-04T09:19:45.686Z,1.60
2022-09-04T09:22:49.775Z,1.90
2022-09-04T09:25:20.884Z,1.98
2022-09-04T09:28:23.473Z,1.77
2022-09-04T09:31:27.105Z,1.55
2022-09-04T09:34:16.984Z,1.30
2022-09-04T09:36:53.567Z,1.50
2022-09-04T09:39:43.924Z,1.38
2022-09-04T09:42:28.776Z,1.63
2022-09-04T09:45:13.437Z,1.77
2022-09-04T09:47:59.150Z,1.30
2022-09-04T09:50:48.497Z,1.52
2022-09-04T09:53:46.849Z,1.83
2022-09-04T09:56:42.033Z,1.85
2022-09-04T09:59:32.114Z,1.73
2022-09-04T10:02:23.730Z,1.90
2022-09-04T10:05:08.593Z,1.90
2022-09-04T10:08:35.503Z,2.13
2022-09-04T10:11:17.526Z,2.10
2022-09-04T10:13:53.529Z,1.63
2022-09-04T10:16:38.993Z,1.52
2022-09-04T10:19:43.229Z,1.90
2022-09-04T10:22:31.705Z,1.40
2022-09-04T10:25:35.565Z,2.17
2022-09-04T10:28:17.414Z,1.40
2022-09-04T10:31:35.173Z,1.67
2022-09-04T10:34:07.619Z,1.27
2022-09-04T10:36:37.115Z,1.67
2022-09-04T10:39:51.699Z,1.40
2022-09-04T10:42:43.912Z,1.58
2022-09-04T10:45:17.144Z,0.95
2022-09-04T10:48:12.653Z,1.15
2022-09-04T10:51:02.013Z,1.40
2022-09-04T10:53:54.787Z,1.35
2022-09-04T10:56:35.463Z,1.17
2022-09-04T10:59:10.397Z,1.67
2022-09-04T11:02:09.639Z,1.30
2022-09-04T11:04:44.483Z,1.25
2022-09-04T11:07:28.853Z,1.38
2022-09-04T11:10:13.798Z,1.80
2022-09-04T11:13:03.885Z,1.08
2022-09-04T11:15:56.373Z,1.30
2022-09-04T11:19:04.380Z,1.30
2022-09-04T11:21:39.999Z,1.15
2022-09-04T11:24:23.517Z,0.90
2022-09-04T11:27:26.367Z,1.23
2022-09-04T11:30:12.193Z,1.10
2022-09-04T11:33:04.241Z,1.15
2022-09-04T11:35:45.235Z,1.05
2022-09-04T11:38:43.877Z,1.10
2022-09-04T11:41:57.346Z,1.05
2022-09-04T11:45:05.816Z,1.00
2022-09-04T11:48:00.142Z,1.10
2022-09-04T11:50:27.075Z,1.10
2022-09-04T11:53:20.260Z,0.90
2022-09-04T11:56:08.675Z,1.15
2022-09-04T11:58:47.209Z,1.08
2022-09-04T12:01:27.057Z,1.10
2022-09-04T12:04:05.166Z,0.98
2022-09-04T12:06:54.115Z,1.17
2022-09-04T12:09:31.758Z,0.95
2022-09-04T12:12:08.255Z,0.98
2022-09-04T12:14:48.755Z,1.10
2022-09-04T12:17:34.812Z,1.23
2022-09-04T12:20:24.315Z,1.10
2022-09-04T12:23:19.230Z,1.13
2022-09-04T12:25:58.078Z,1.00
2022-09-04T12:28:45.810Z,1.10
2022-09-04T12:31:35.735Z,1.05
2022-09-04T12:34:28.748Z,1.08
2022-09-04T12:37:11.446Z,1.00
2022-09-04T12:39:53.328Z,1.10
2022-09-04T12:42:26.920Z,1.27
2022-09-04T12:45:02.947Z,1.10
2022-09-04T12:47:57.221Z,0.80
2022-09-04T12:50:32.750Z,1.20
2022-09-04T12:53:12.840Z,0.88
2022-09-04T12:55:50.788Z,1.00
2022-09-04T12:58:34.521Z,1.30
2022-09-04T13:01:10.781Z,1.00
2022-09-04T13:03:45.533Z,0.80
2022-09-04T13:06:40.050Z,1.25
2022-09-04T13:09:23.178Z,0.90
2022-09-04T13:11:59.217Z,1.17
2022-09-04T13:14:42.845Z,0.95
2022-09-04T13:17:27.463Z,0.70
2022-09-04T13:20:08.723Z,0.90
2022-09-04T13:22:47.267Z,1.20
2022-09-04T13:25:23.178Z,1.10
2022-09-04T13:27:57.491Z,0.90
2022-09-04T13:30:25.686Z,1.00
2022-09-04T13:33:20.078Z,1.13
2022-09-04T13:36:02.535Z,1.00
2022-09-04T13:38:46.620Z,0.80
2022-09-04T13:41:54.956Z,0.90
2022-09-04T13:44:21.723Z,1.00
2022-09-04T13:47:09.162Z,0.98
2022-09-04T13:49:55.318Z,1.05
2022-09-04T13:52:43.231Z,1.00
2022-09-04T13:55:14.365Z,1.08
2022-09-04T13:58:02.789Z,0.75
2022-09-04T14:00:32.266Z,1.10
2022-09-04T14:03:11.039Z,1.00
2022-09-04T14:05:38.146Z,1.05
2022-09-04T14:08:08.837Z,1.00
2022-09-04T14:11:19.981Z,0.80
2022-09-04T14:14:13.643Z,0.77
2022-09-04T14:16:41.866Z,0.93
2022-09-04T14:19:17.573Z,1.10
2022-09-04T14:22:05.491Z,0.90
2022-09-04T14:24:59.356Z,1.50
2022-09-04T14:27:39.560Z,1.15
2022-09-04T14:30:13.829Z,1.00
2022-09-04T14:33:07.251Z,1.25
2022-09-04T14:35:53.075Z,1.10
2022-09-04T14:38:49.486Z,1.20
2022-09-04T14:41:54.477Z,1.10
2022-09-04T14:44:39.295Z,0.80
2022-09-04T14:47:34.229Z,1.20
2022-09-04T14:50:01.533Z,1.33
2022-09-04T14:52:35.471Z,1.10
2022-09-04T14:55:06.946Z,1.10
2022-09-04T14:57:36.676Z,0.95
2022-09-04T15:00:10.956Z,0.82
2022-09-04T15:03:02.522Z,1.10
2022-09-04T15:05:51.620Z,0.93
2022-09-04T15:08:26.884Z,1.23
2022-09-04T15:10:57.373Z,0.88
2022-09-04T15:13:32.206Z,1.20
2022-09-04T15:16:20.166Z,1.00
2022-09-04T15:18:58.354Z,1.10
2022-09-04T15:21:43.906Z,1.10
2022-09-04T15:24:25.793Z,0.90
2022-09-04T15:27:17.289Z,1.20
2022-09-04T15:29:57.812Z,1.00
2022-09-04T15:32:26.928Z,1.10
2022-09-04T15:35:15.938Z,1.05
2022-09-04T15:37:48.322Z,0.90
2022-09-04T15:40:31.224Z,1.38
2022-09-04T15:43:01.698Z,1.23
2022-09-04T15:45:40.872Z,1.00
2022-09-04T15:48:35.456Z,1.55
2022-09-04T15:51:22.784Z,1.50
2022-09-04T15:54:08.234Z,1.10
2022-09-04T15:56:39.437Z,1.45
2022-09-04T15:59:20.555Z,1.33
2022-09-04T16:02:12.686Z,1.13
2022-09-04T16:05:05.723Z,2.00
2022-09-04T16:07:51.118Z,1.50
2022-09-04T16:10:30.272Z,1.50
2022-09-04T16:13:01.648Z,1.50
2022-09-04T16:15:43.250Z,1.00
2022-09-04T16:18:16.079Z,1.30
2022-09-04T16:20:51.770Z,1.25
2022-09-04T16:23:28.773Z,1.05
2022-09-04T16:25:58.276Z,1.08
2022-09-04T16:28:31.773Z,1.13
2022-09-04T16:31:06.574Z,1.13
2022-09-04T16:33:33.516Z,1.17
2022-09-04T16:36:13.933Z,0.90
2022-09-04T16:38:59.868Z,1.20
2022-09-04T16:41:37.653Z,1.20
2022-09-04T16:44:14.177Z,1.30
2022-09-04T16:47:04.751Z,1.23
2022-09-04T16:49:39.092Z,0.95
2022-09-04T16:52:21.327Z,1.20
2022-09-04T16:57:42.539Z,1.50
2022-09-04T17:00:14.442Z,1.10
2022-09-04T17:02:51.881Z,1.00
2022-09-04T17:05:28.814Z,1.40
2022-09-04T17:08:04.929Z,1.10
2022-09-04T17:10:36.513Z,1.38
2022-09-04T17:13:12.248Z,1.00
2022-09-04T17:15:53.194Z,1.23
2022-09-04T17:18:22.666Z,1.33
2022-09-04T17:22:24.969Z,0.95
2022-09-04T17:28:58.087Z,1.27
2022-09-04T17:29:08.974Z,0.93
2022-09-04T17:29:47.727Z,1.17
2022-09-04T17:36:39.029Z,1.10
2022-09-04T17:40:38.375Z,1.33
2022-09-04T17:40:57.153Z,1.25
2022-09-04T17:41:36.383Z,1.30
2022-09-04T17:44:22.402Z,1.10
2022-09-04T17:47:07.072Z,1.27
2022-09-04T17:49:35.118Z,1.27
2022-09-04T17:52:09.007Z,1.00
2022-09-04T17:54:48.863Z,1.27
2022-09-04T17:57:28.953Z,1.27
2022-09-04T18:00:06.695Z,1.33
2022-09-04T18:02:56.308Z,1.17
2022-09-04T18:05:31.559Z,1.17
2022-09-04T18:08:13.774Z,1.50
2022-09-04T18:10:49.670Z,1.15
2022-09-04T18:13:36.756Z,1.33
2022-09-04T18:16:16.286Z,1.48
2022-09-04T18:18:47.165Z,1.10
2022-09-04T18:21:26.920Z,1.25
2022-09-04T18:24:07.497Z,1.20
2022-09-04T18:26:41.696Z,1.60
2022-09-04T18:30:35.309Z,1.30
2022-09-04T18:37:25.130Z,1.48
2022-09-04T18:37:25.847Z,1.45
2022-09-04T18:37:59.830Z,1.58
2022-09-04T18:44:58.523Z,1.50
2022-09-04T18:50:24.469Z,1.77
2022-09-04T18:50:30.442Z,1.50
2022-09-04T18:50:45.240Z,1.50
2022-09-04T18:52:00.532Z,7.43
2022-09-04T18:54:39.690Z,5.15
2022-09-04T18:57:20.568Z,2.70
2022-09-04T18:59:54.930Z,2.63
2022-09-04T19:02:43.872Z,2.03
2022-09-04T19:05:20.343Z,2.40
2022-09-04T19:08:05.362Z,1.83
2022-09-04T19:10:45.343Z,1.83
2022-09-04T19:13:19.517Z,1.77
2022-09-04T19:16:10.648Z,1.67
2022-09-04T19:19:00.826Z,2.20
2022-09-04T19:21:40.848Z,1.75
2022-09-04T19:24:32.087Z,1.92
2022-09-04T19:27:27.210Z,2.17
2022-09-04T19:30:18.750Z,2.22
2022-09-04T19:32:59.754Z,1.77
2022-09-04T19:35:50.091Z,1.67
2022-09-04T19:45:34.831Z,2.20
2022-09-04T19:46:04.421Z,2.05
2022-09-04T19:46:14.313Z,2.05
2022-09-04T19:47:40.405Z,2.10
2022-09-04T19:53:32.832Z,1.98
2022-09-04T19:53:38.928Z,1.77
2022-09-04T19:56:30.734Z,1.77
2022-09-04T19:59:26.864Z,1.65
2022-09-04T20:02:02.824Z,2.00
2022-09-04T20:04:41.207Z,2.15
2022-09-04T20:07:32.448Z,2.28
2022-09-04T20:10:04.684Z,2.42
2022-09-04T20:12:44.119Z,1.92
2022-09-04T20:15:22.436Z,2.00
2022-09-04T20:18:19.782Z,2.25
2022-09-04T20:20:58.197Z,2.10
2022-09-04T20:23:52.348Z,2.25
2022-09-04T20:26:30.782Z,2.55
2022-09-04T20:29:20.800Z,2.67
2022-09-04T20:31:52.940Z,2.35
2022-09-04T20:34:39.006Z,2.20
2022-09-04T20:37:23.638Z,2.88
2022-09-04T20:39:59.486Z,2.72
2022-09-04T20:42:35.894Z,2.50
2022-09-04T20:48:55.129Z,2.25
2022-09-04T20:52:42.762Z,2.17
2022-09-04T20:53:06.041Z,2.45
2022-09-04T20:54:06.022Z,2.38
2022-09-04T21:00:39.273Z,2.42
2022-09-04T21:03:14.259Z,2.40
2022-09-04T21:03:23.114Z,2.60
2022-09-04T21:05:32.863Z,2.83
2022-09-04T21:08:06.575Z,2.75
2022-09-04T21:10:41.017Z,2.08
2022-09-04T21:13:23.181Z,2.78
2022-09-04T21:15:59.282Z,2.53
2022-09-04T21:19:27.893Z,2.33
2022-09-04T21:22:32.645Z,2.35
2022-09-04T21:25:27.901Z,2.22
2022-09-04T21:28:32.049Z,2.40
2022-09-04T21:31:17.374Z,2.05
2022-09-04T21:33:45.642Z,2.45
2022-09-04T21:36:38.217Z,2.33
2022-09-04T21:39:41.453Z,2.65
2022-09-04T21:42:20.805Z,2.42
2022-09-04T21:45:19.041Z,2.40
2022-09-04T21:48:02.016Z,2.50
2022-09-04T21:50:46.839Z,2.40
2022-09-04T21:53:41.138Z,2.63
2022-09-04T22:00:48.950Z,2.40
2022-09-04T22:02:45.024Z,2.50
2022-09-04T22:03:09.619Z,2.70
2022-09-04T22:05:56.636Z,2.67
2022-09-04T22:13:30.678Z,2.45
2022-09-04T22:13:46.008Z,2.63
2022-09-04T22:14:37.424Z,2.30
2022-09-04T22:17:24.913Z,2.45
2022-09-04T22:20:08.645Z,2.33
2022-09-04T22:22:56.809Z,2.15
2022-09-04T22:25:47.985Z,2.30
2022-09-04T22:29:00.099Z,2.78
2022-09-04T22:31:29.688Z,2.60
2022-09-04T22:34:15.007Z,2.20
2022-09-04T22:37:12.144Z,2.60
2022-09-04T22:40:13.010Z,2.75
2022-09-04T22:43:01.805Z,2.03
2022-09-04T22:45:41.404Z,2.97
2022-09-04T22:48:32.733Z,2.95
2022-09-04T22:51:06.083Z,2.10
2022-09-04T22:54:17.799Z,2.45
2022-09-04T22:56:57.389Z,2.58
2022-09-04T23:00:01.729Z,2.45
2022-09-04T23:06:14.039Z,2.78
2022-09-04T23:13:42.784Z,3.20
2022-09-04T23:14:02.318Z,3.53
2022-09-04T23:15:17.235Z,2.63
2022-09-04T23:26:32.847Z,3.40
2022-09-04T23:26:41.908Z,3.05
2022-09-04T23:27:27.971Z,2.80
2022-09-04T23:30:04.958Z,3.23
2022-09-04T23:32:35.412Z,2.92
2022-09-04T23:35:27.590Z,2.92
2022-09-04T23:38:24.128Z,2.25
2022-09-04T23:40:53.670Z,3.00
2022-09-04T23:43:30.901Z,3.38
2022-09-04T23:46:13.380Z,3.40
2022-09-04T23:49:18.258Z,3.13
2022-09-04T23:52:05.118Z,3.03
2022-09-04T23:54:56.896Z,2.80
2022-09-04T23:57:55.812Z,3.78
